sensor_id;sensor_type;location;lat;lon;timestamp;temperature;humidity
4584;DHT22;2304;47.606;12.186;2023-01-10T00:02:24;6.30;73.00
4584;DHT22;2304;47.606;12.186;2023-01-10T00:07:25;6.20;73.30
4584;DHT22;2304;47.606;12.186;2023-01-10T00:12:29;6.10;74.00
4584;DHT22;2304;47.606;12.186;2023-01-10T00:17:48;6.00;74.80
4584;DHT22;2304;47.606;12.186;2023-01-10T00:22:50;5.90;76.10
4584;DHT22;2304;47.606;12.186;2023-01-10T00:27:53;5.80;75.80
4584;DHT22;2304;47.606;12.186;2023-01-10T00:33:01;5.70;76.60
4584;DHT22;2304;47.606;12.186;2023-01-10T00:38:05;5.60;77.00
4584;DHT22;2304;47.606;12.186;2023-01-10T00:43:09;5.60;76.50
4584;DHT22;2304;47.606;12.186;2023-01-10T00:48:29;5.50;77.30
4584;DHT22;2304;47.606;12.186;2023-01-10T00:53:30;5.40;78.20
4584;DHT22;2304;47.606;12.186;2023-01-10T00:58:34;5.30;78.70
4584;DHT22;2304;47.606;12.186;2023-01-10T01:03:36;5.30;79.20
4584;DHT22;2304;47.606;12.186;2023-01-10T01:08:38;5.10;79.00
4584;DHT22;2304;47.606;12.186;2023-01-10T01:13:41;5.20;80.60
4584;DHT22;2304;47.606;12.186;2023-01-10T01:18:42;5.10;81.10
4584;DHT22;2304;47.606;12.186;2023-01-10T01:23:44;5.10;81.20
4584;DHT22;2304;47.606;12.186;2023-01-10T01:28:47;5.10;81.50
4584;DHT22;2304;47.606;12.186;2023-01-10T01:33:49;5.00;81.40
4584;DHT22;2304;47.606;12.186;2023-01-10T01:38:51;5.10;81.20
4584;DHT22;2304;47.606;12.186;2023-01-10T01:44:02;5.10;80.10
4584;DHT22;2304;47.606;12.186;2023-01-10T01:49:10;5.20;80.90
4584;DHT22;2304;47.606;12.186;2023-01-10T01:54:14;5.00;81.10
4584;DHT22;2304;47.606;12.186;2023-01-10T01:59:23;5.10;81.50
4584;DHT22;2304;47.606;12.186;2023-01-10T02:04:30;5.10;81.80
4584;DHT22;2304;47.606;12.186;2023-01-10T02:09:36;5.10;81.30
4584;DHT22;2304;47.606;12.186;2023-01-10T02:14:42;5.10;81.00
4584;DHT22;2304;47.606;12.186;2023-01-10T02:19:49;5.10;82.00
4584;DHT22;2304;47.606;12.186;2023-01-10T02:25:03;4.90;82.40
4584;DHT22;2304;47.606;12.186;2023-01-10T02:30:42;5.00;82.60
4584;DHT22;2304;47.606;12.186;2023-01-10T02:36:02;5.00;82.30
4584;DHT22;2304;47.606;12.186;2023-01-10T02:41:13;5.10;82.00
4584;DHT22;2304;47.606;12.186;2023-01-10T02:46:20;5.10;81.70
4584;DHT22;2304;47.606;12.186;2023-01-10T02:51:27;5.10;82.00
4584;DHT22;2304;47.606;12.186;2023-01-10T03:02:10;5.10;82.20
4584;DHT22;2304;47.606;12.186;2023-01-10T03:07:18;5.20;82.50
4584;DHT22;2304;47.606;12.186;2023-01-10T03:12:24;5.10;83.00
4584;DHT22;2304;47.606;12.186;2023-01-10T03:17:29;5.00;83.90
4584;DHT22;2304;47.606;12.186;2023-01-10T03:22:36;5.00;84.50
4584;DHT22;2304;47.606;12.186;2023-01-10T03:27:43;5.00;85.60
4584;DHT22;2304;47.606;12.186;2023-01-10T03:32:49;4.90;86.10
4584;DHT22;2304;47.606;12.186;2023-01-10T03:37:54;4.90;86.20
4584;DHT22;2304;47.606;12.186;2023-01-10T03:43:01;4.90;86.20
4584;DHT22;2304;47.606;12.186;2023-01-10T03:48:25;5.00;86.00
4584;DHT22;2304;47.606;12.186;2023-01-10T03:53:30;5.00;85.60
4584;DHT22;2304;47.606;12.186;2023-01-10T03:58:32;5.10;85.50
4584;DHT22;2304;47.606;12.186;2023-01-10T04:03:34;5.10;85.10
4584;DHT22;2304;47.606;12.186;2023-01-10T04:08:37;5.20;84.70
4584;DHT22;2304;47.606;12.186;2023-01-10T04:13:39;5.30;84.30
4584;DHT22;2304;47.606;12.186;2023-01-10T04:18:42;5.20;83.80
4584;DHT22;2304;47.606;12.186;2023-01-10T04:23:45;5.30;83.80
4584;DHT22;2304;47.606;12.186;2023-01-10T04:28:47;5.30;83.90
4584;DHT22;2304;47.606;12.186;2023-01-10T04:33:49;5.30;83.10
4584;DHT22;2304;47.606;12.186;2023-01-10T04:38:52;5.40;81.80
4584;DHT22;2304;47.606;12.186;2023-01-10T04:43:54;5.40;80.00
4584;DHT22;2304;47.606;12.186;2023-01-10T04:48:57;5.50;78.30
4584;DHT22;2304;47.606;12.186;2023-01-10T04:54:00;5.50;77.00
4584;DHT22;2304;47.606;12.186;2023-01-10T04:59:02;5.50;77.00
4584;DHT22;2304;47.606;12.186;2023-01-10T05:04:06;5.80;76.80
4584;DHT22;2304;47.606;12.186;2023-01-10T05:09:09;5.60;75.70
4584;DHT22;2304;47.606;12.186;2023-01-10T05:14:11;5.60;76.60
4584;DHT22;2304;47.606;12.186;2023-01-10T05:19:13;5.60;76.50
4584;DHT22;2304;47.606;12.186;2023-01-10T05:24:16;5.60;77.00
4584;DHT22;2304;47.606;12.186;2023-01-10T05:29:18;5.60;76.40
4584;DHT22;2304;47.606;12.186;2023-01-10T05:34:20;5.60;77.40
4584;DHT22;2304;47.606;12.186;2023-01-10T05:39:23;5.60;77.30
4584;DHT22;2304;47.606;12.186;2023-01-10T05:44:25;5.90;76.50
4584;DHT22;2304;47.606;12.186;2023-01-10T05:49:27;5.60;77.30
4584;DHT22;2304;47.606;12.186;2023-01-10T05:54:30;5.60;77.30
4584;DHT22;2304;47.606;12.186;2023-01-10T05:59:31;5.60;77.90
4584;DHT22;2304;47.606;12.186;2023-01-10T06:04:33;5.60;78.00
4584;DHT22;2304;47.606;12.186;2023-01-10T06:09:36;5.60;77.60
4584;DHT22;2304;47.606;12.186;2023-01-10T06:14:38;5.60;77.30
4584;DHT22;2304;47.606;12.186;2023-01-10T06:19:40;5.60;77.10
4584;DHT22;2304;47.606;12.186;2023-01-10T06:24:43;5.70;76.90
4584;DHT22;2304;47.606;12.186;2023-01-10T06:29:45;5.70;76.60
4584;DHT22;2304;47.606;12.186;2023-01-10T06:34:47;5.70;77.30
4584;DHT22;2304;47.606;12.186;2023-01-10T06:39:50;5.70;77.40
4584;DHT22;2304;47.606;12.186;2023-01-10T06:44:52;5.70;76.60
4584;DHT22;2304;47.606;12.186;2023-01-10T06:49:53;5.70;76.70
4584;DHT22;2304;47.606;12.186;2023-01-10T06:54:56;5.70;77.10
4584;DHT22;2304;47.606;12.186;2023-01-10T06:59:58;5.70;77.30
4584;DHT22;2304;47.606;12.186;2023-01-10T07:05:00;5.70;77.70
4584;DHT22;2304;47.606;12.186;2023-01-10T07:10:04;5.70;78.40
4584;DHT22;2304;47.606;12.186;2023-01-10T07:15:07;5.70;77.70
4584;DHT22;2304;47.606;12.186;2023-01-10T07:20:10;5.70;77.60
4584;DHT22;2304;47.606;12.186;2023-01-10T07:25:13;5.70;77.00
4584;DHT22;2304;47.606;12.186;2023-01-10T07:30:16;5.70;76.90
4584;DHT22;2304;47.606;12.186;2023-01-10T07:35:18;5.70;76.50
4584;DHT22;2304;47.606;12.186;2023-01-10T07:40:21;5.70;77.10
4584;DHT22;2304;47.606;12.186;2023-01-10T07:45:23;5.80;77.00
4584;DHT22;2304;47.606;12.186;2023-01-10T07:50:28;5.80;76.60
4584;DHT22;2304;47.606;12.186;2023-01-10T07:55:32;5.80;77.70
4584;DHT22;2304;47.606;12.186;2023-01-10T08:00:35;5.90;77.30
4584;DHT22;2304;47.606;12.186;2023-01-10T08:05:37;5.90;77.10
4584;DHT22;2304;47.606;12.186;2023-01-10T08:10:40;5.90;77.20
4584;DHT22;2304;47.606;12.186;2023-01-10T08:15:42;5.90;78.00
4584;DHT22;2304;47.606;12.186;2023-01-10T08:20:45;5.80;78.80
4584;DHT22;2304;47.606;12.186;2023-01-10T08:25:49;5.90;77.90
4584;DHT22;2304;47.606;12.186;2023-01-10T08:30:51;5.90;76.90
4584;DHT22;2304;47.606;12.186;2023-01-10T08:35:55;5.90;77.50
4584;DHT22;2304;47.606;12.186;2023-01-10T08:40:58;5.70;77.90
4584;DHT22;2304;47.606;12.186;2023-01-10T08:46:00;5.70;77.70
4584;DHT22;2304;47.606;12.186;2023-01-10T08:51:06;5.70;76.90
4584;DHT22;2304;47.606;12.186;2023-01-10T08:56:10;5.80;77.50
4584;DHT22;2304;47.606;12.186;2023-01-10T09:01:12;5.90;78.30
4584;DHT22;2304;47.606;12.186;2023-01-10T09:06:14;5.80;77.90
4584;DHT22;2304;47.606;12.186;2023-01-10T09:11:17;5.80;78.30
4584;DHT22;2304;47.606;12.186;2023-01-10T09:16:19;5.80;77.60
4584;DHT22;2304;47.606;12.186;2023-01-10T09:21:21;5.70;76.90
4584;DHT22;2304;47.606;12.186;2023-01-10T09:26:24;5.70;77.40
4584;DHT22;2304;47.606;12.186;2023-01-10T09:31:26;5.70;77.10
4584;DHT22;2304;47.606;12.186;2023-01-10T09:36:27;5.70;76.90
4584;DHT22;2304;47.606;12.186;2023-01-10T09:41:48;5.80;77.20
4584;DHT22;2304;47.606;12.186;2023-01-10T09:46:57;5.70;77.10
4584;DHT22;2304;47.606;12.186;2023-01-10T09:52:02;5.70;77.70
4584;DHT22;2304;47.606;12.186;2023-01-10T09:57:13;5.70;77.80
4584;DHT22;2304;47.606;12.186;2023-01-10T10:02:24;5.70;76.60
4584;DHT22;2304;47.606;12.186;2023-01-10T10:07:27;5.80;76.70
4584;DHT22;2304;47.606;12.186;2023-01-10T10:12:38;5.90;76.80
4584;DHT22;2304;47.606;12.186;2023-01-10T10:17:47;5.90;76.50
4584;DHT22;2304;47.606;12.186;2023-01-10T10:23:01;5.90;76.60
4584;DHT22;2304;47.606;12.186;2023-01-10T10:28:26;6.00;76.90
4584;DHT22;2304;47.606;12.186;2023-01-10T10:33:49;6.10;76.30
4584;DHT22;2304;47.606;12.186;2023-01-10T10:38:58;6.20;76.90
4584;DHT22;2304;47.606;12.186;2023-01-10T10:44:11;6.20;76.60
4584;DHT22;2304;47.606;12.186;2023-01-10T10:49:21;6.20;75.30
4584;DHT22;2304;47.606;12.186;2023-01-10T10:54:26;6.20;74.30
4584;DHT22;2304;47.606;12.186;2023-01-10T10:59:29;6.10;73.40
4584;DHT22;2304;47.606;12.186;2023-01-10T11:04:31;6.10;72.70
4584;DHT22;2304;47.606;12.186;2023-01-10T11:09:33;6.10;73.40
4584;DHT22;2304;47.606;12.186;2023-01-10T11:14:42;6.00;72.30
4584;DHT22;2304;47.606;12.186;2023-01-10T11:19:55;6.10;73.20
4584;DHT22;2304;47.606;12.186;2023-01-10T11:24:59;6.20;71.90
4584;DHT22;2304;47.606;12.186;2023-01-10T11:30:06;6.20;69.10
4584;DHT22;2304;47.606;12.186;2023-01-10T11:35:18;6.30;69.20
4584;DHT22;2304;47.606;12.186;2023-01-10T11:40:23;6.70;69.60
4584;DHT22;2304;47.606;12.186;2023-01-10T11:45:29;6.50;67.80
4584;DHT22;2304;47.606;12.186;2023-01-10T11:50:34;6.60;68.00
4584;DHT22;2304;47.606;12.186;2023-01-10T11:55:36;6.60;66.90
4584;DHT22;2304;47.606;12.186;2023-01-10T12:00:42;6.70;67.10
4584;DHT22;2304;47.606;12.186;2023-01-10T12:05:52;7.10;67.70
4584;DHT22;2304;47.606;12.186;2023-01-10T12:11:00;7.10;67.20
4584;DHT22;2304;47.606;12.186;2023-01-10T12:16:22;6.80;64.50
4584;DHT22;2304;47.606;12.186;2023-01-10T12:21:29;6.60;63.50
4584;DHT22;2304;47.606;12.186;2023-01-10T12:26:32;6.70;63.40
4584;DHT22;2304;47.606;12.186;2023-01-10T12:31:39;6.60;63.60
4584;DHT22;2304;47.606;12.186;2023-01-10T12:36:48;6.60;63.80
4584;DHT22;2304;47.606;12.186;2023-01-10T12:42:01;6.60;63.50
4584;DHT22;2304;47.606;12.186;2023-01-10T12:47:29;6.70;65.00
4584;DHT22;2304;47.606;12.186;2023-01-10T12:52:37;6.70;65.40
4584;DHT22;2304;47.606;12.186;2023-01-10T12:57:46;6.70;65.80
4584;DHT22;2304;47.606;12.186;2023-01-10T13:02:52;6.70;66.50
4584;DHT22;2304;47.606;12.186;2023-01-10T13:07:59;6.80;66.80
4584;DHT22;2304;47.606;12.186;2023-01-10T13:13:15;6.80;67.00
4584;DHT22;2304;47.606;12.186;2023-01-10T13:18:25;6.80;67.60
4584;DHT22;2304;47.606;12.186;2023-01-10T13:23:29;6.90;68.80
4584;DHT22;2304;47.606;12.186;2023-01-10T13:28:33;7.00;68.40
4584;DHT22;2304;47.606;12.186;2023-01-10T13:33:49;7.00;68.30
4584;DHT22;2304;47.606;12.186;2023-01-10T13:38:54;6.90;67.50
4584;DHT22;2304;47.606;12.186;2023-01-10T13:44:02;6.90;67.60
4584;DHT22;2304;47.606;12.186;2023-01-10T13:54:54;6.90;67.80
4584;DHT22;2304;47.606;12.186;2023-01-10T14:00:01;6.90;68.10
4584;DHT22;2304;47.606;12.186;2023-01-10T14:05:22;6.90;67.80
4584;DHT22;2304;47.606;12.186;2023-01-10T14:10:25;6.90;68.10
4584;DHT22;2304;47.606;12.186;2023-01-10T14:15:29;6.90;66.90
4584;DHT22;2304;47.606;12.186;2023-01-10T14:20:35;6.80;67.20
4584;DHT22;2304;47.606;12.186;2023-01-10T14:25:37;6.80;67.20
4584;DHT22;2304;47.606;12.186;2023-01-10T14:30:39;6.80;68.30
4584;DHT22;2304;47.606;12.186;2023-01-10T14:35:45;6.80;67.40
4584;DHT22;2304;47.606;12.186;2023-01-10T14:40:50;6.80;68.80
4584;DHT22;2304;47.606;12.186;2023-01-10T14:45:58;6.80;69.40
4584;DHT22;2304;47.606;12.186;2023-01-10T14:51:16;6.80;70.10
4584;DHT22;2304;47.606;12.186;2023-01-10T14:56:23;6.70;70.40
4584;DHT22;2304;47.606;12.186;2023-01-10T15:01:27;6.70;70.70
4584;DHT22;2304;47.606;12.186;2023-01-10T15:06:50;6.70;70.90
4584;DHT22;2304;47.606;12.186;2023-01-10T15:11:52;6.80;71.40
4584;DHT22;2304;47.606;12.186;2023-01-10T15:16:57;6.70;71.70
4584;DHT22;2304;47.606;12.186;2023-01-10T15:22:15;6.70;70.50
4584;DHT22;2304;47.606;12.186;2023-01-10T15:27:18;6.60;70.00
4584;DHT22;2304;47.606;12.186;2023-01-10T15:32:23;6.60;68.20
4584;DHT22;2304;47.606;12.186;2023-01-10T15:37:30;6.60;68.30
4584;DHT22;2304;47.606;12.186;2023-01-10T15:42:34;6.60;69.90
4584;DHT22;2304;47.606;12.186;2023-01-10T15:47:38;6.40;70.70
4584;DHT22;2304;47.606;12.186;2023-01-10T15:52:48;6.40;71.10
4584;DHT22;2304;47.606;12.186;2023-01-10T15:57:50;6.40;71.70
4584;DHT22;2304;47.606;12.186;2023-01-10T16:02:53;6.40;71.90
4584;DHT22;2304;47.606;12.186;2023-01-10T16:07:57;6.40;74.00
4584;DHT22;2304;47.606;12.186;2023-01-10T16:13:08;6.40;72.80
4584;DHT22;2304;47.606;12.186;2023-01-10T16:18:31;6.30;71.80
4584;DHT22;2304;47.606;12.186;2023-01-10T16:23:35;6.20;71.80
4584;DHT22;2304;47.606;12.186;2023-01-10T16:28:38;6.20;71.80
4584;DHT22;2304;47.606;12.186;2023-01-10T16:33:39;6.20;71.80
4584;DHT22;2304;47.606;12.186;2023-01-10T16:38:43;6.10;71.00
4584;DHT22;2304;47.606;12.186;2023-01-10T16:43:46;6.00;70.70
4584;DHT22;2304;47.606;12.186;2023-01-10T16:48:48;5.90;70.80
4584;DHT22;2304;47.606;12.186;2023-01-10T16:53:53;5.80;70.40
4584;DHT22;2304;47.606;12.186;2023-01-10T16:58:56;5.70;70.10
4584;DHT22;2304;47.606;12.186;2023-01-10T17:03:58;5.60;69.90
4584;DHT22;2304;47.606;12.186;2023-01-10T17:09:02;5.40;70.30
4584;DHT22;2304;47.606;12.186;2023-01-10T17:14:04;5.40;70.60
4584;DHT22;2304;47.606;12.186;2023-01-10T17:19:07;5.30;70.50
4584;DHT22;2304;47.606;12.186;2023-01-10T17:24:10;5.20;71.10
4584;DHT22;2304;47.606;12.186;2023-01-10T17:29:12;5.20;71.70
4584;DHT22;2304;47.606;12.186;2023-01-10T17:34:14;5.20;71.50
4584;DHT22;2304;47.606;12.186;2023-01-10T17:39:17;5.10;71.50
4584;DHT22;2304;47.606;12.186;2023-01-10T17:44:19;5.10;71.40
4584;DHT22;2304;47.606;12.186;2023-01-10T17:49:21;5.00;71.70
4584;DHT22;2304;47.606;12.186;2023-01-10T17:54:25;4.90;72.40
4584;DHT22;2304;47.606;12.186;2023-01-10T17:59:27;4.90;72.20
4584;DHT22;2304;47.606;12.186;2023-01-10T18:04:29;4.90;72.30
4584;DHT22;2304;47.606;12.186;2023-01-10T18:09:32;4.80;72.10
4584;DHT22;2304;47.606;12.186;2023-01-10T18:14:34;4.70;72.20
4584;DHT22;2304;47.606;12.186;2023-01-10T18:19:36;4.70;72.60
4584;DHT22;2304;47.606;12.186;2023-01-10T18:24:39;4.50;72.80
4584;DHT22;2304;47.606;12.186;2023-01-10T18:29:41;4.30;72.90
4584;DHT22;2304;47.606;12.186;2023-01-10T18:34:43;4.10;73.80
4584;DHT22;2304;47.606;12.186;2023-01-10T18:39:47;4.00;75.60
4584;DHT22;2304;47.606;12.186;2023-01-10T18:44:49;3.90;77.00
4584;DHT22;2304;47.606;12.186;2023-01-10T18:49:51;3.90;77.30
4584;DHT22;2304;47.606;12.186;2023-01-10T18:54:54;3.80;77.50
4584;DHT22;2304;47.606;12.186;2023-01-10T18:59:56;3.80;78.40
4584;DHT22;2304;47.606;12.186;2023-01-10T19:04:58;3.70;78.30
4584;DHT22;2304;47.606;12.186;2023-01-10T19:10:01;3.70;78.80
4584;DHT22;2304;47.606;12.186;2023-01-10T19:15:03;3.70;79.10
4584;DHT22;2304;47.606;12.186;2023-01-10T19:20:06;3.70;79.00
4584;DHT22;2304;47.606;12.186;2023-01-10T19:25:10;3.70;78.90
4584;DHT22;2304;47.606;12.186;2023-01-10T19:30:12;3.60;79.30
4584;DHT22;2304;47.606;12.186;2023-01-10T19:35:14;3.60;79.90
4584;DHT22;2304;47.606;12.186;2023-01-10T19:40:17;3.50;80.00
4584;DHT22;2304;47.606;12.186;2023-01-10T19:45:19;3.50;80.10
4584;DHT22;2304;47.606;12.186;2023-01-10T19:50:21;3.60;80.00
4584;DHT22;2304;47.606;12.186;2023-01-10T19:55:24;3.40;79.10
4584;DHT22;2304;47.606;12.186;2023-01-10T20:00:27;3.30;78.60
4584;DHT22;2304;47.606;12.186;2023-01-10T20:05:32;3.40;78.70
4584;DHT22;2304;47.606;12.186;2023-01-10T20:10:36;3.30;78.80
4584;DHT22;2304;47.606;12.186;2023-01-10T20:15:37;3.30;79.30
4584;DHT22;2304;47.606;12.186;2023-01-10T20:20:39;3.20;79.00
4584;DHT22;2304;47.606;12.186;2023-01-10T20:25:43;3.10;78.90
4584;DHT22;2304;47.606;12.186;2023-01-10T20:30:45;3.10;79.20
4584;DHT22;2304;47.606;12.186;2023-01-10T20:35:54;3.00;78.70
4584;DHT22;2304;47.606;12.186;2023-01-10T20:40:58;3.10;79.10
4584;DHT22;2304;47.606;12.186;2023-01-10T20:46:04;3.00;79.20
4584;DHT22;2304;47.606;12.186;2023-01-10T20:51:07;2.90;79.60
4584;DHT22;2304;47.606;12.186;2023-01-10T20:56:14;3.00;79.90
4584;DHT22;2304;47.606;12.186;2023-01-10T21:01:17;2.90;79.60
4584;DHT22;2304;47.606;12.186;2023-01-10T21:06:19;2.90;79.40
4584;DHT22;2304;47.606;12.186;2023-01-10T21:11:23;2.90;79.30
4584;DHT22;2304;47.606;12.186;2023-01-10T21:16:25;2.90;79.30
4584;DHT22;2304;47.606;12.186;2023-01-10T21:21:26;2.90;80.20
4584;DHT22;2304;47.606;12.186;2023-01-10T21:26:30;2.80;80.80
4584;DHT22;2304;47.606;12.186;2023-01-10T21:31:32;2.80;80.30
4584;DHT22;2304;47.606;12.186;2023-01-10T21:36:34;2.70;79.90
4584;DHT22;2304;47.606;12.186;2023-01-10T21:41:37;2.70;79.60
4584;DHT22;2304;47.606;12.186;2023-01-10T21:46:56;2.70;79.40
4584;DHT22;2304;47.606;12.186;2023-01-10T21:51:58;2.70;79.30
4584;DHT22;2304;47.606;12.186;2023-01-10T21:57:01;2.60;79.60
4584;DHT22;2304;47.606;12.186;2023-01-10T22:02:03;2.60;79.30
4584;DHT22;2304;47.606;12.186;2023-01-10T22:07:05;2.50;79.20
4584;DHT22;2304;47.606;12.186;2023-01-10T22:12:09;2.50;79.10
4584;DHT22;2304;47.606;12.186;2023-01-10T22:17:11;2.40;78.70
4584;DHT22;2304;47.606;12.186;2023-01-10T22:22:13;2.50;79.00
4584;DHT22;2304;47.606;12.186;2023-01-10T22:27:18;2.50;78.60
4584;DHT22;2304;47.606;12.186;2023-01-10T22:32:20;2.30;78.50
4584;DHT22;2304;47.606;12.186;2023-01-10T22:37:22;2.30;78.70
4584;DHT22;2304;47.606;12.186;2023-01-10T22:42:25;2.30;79.10
4584;DHT22;2304;47.606;12.186;2023-01-10T22:47:27;2.30;78.80
4584;DHT22;2304;47.606;12.186;2023-01-10T22:52:29;2.40;78.70
4584;DHT22;2304;47.606;12.186;2023-01-10T22:57:32;2.30;78.30
4584;DHT22;2304;47.606;12.186;2023-01-10T23:02:34;2.30;78.40
4584;DHT22;2304;47.606;12.186;2023-01-10T23:07:35;2.20;78.30
4584;DHT22;2304;47.606;12.186;2023-01-10T23:12:39;2.20;78.60
4584;DHT22;2304;47.606;12.186;2023-01-10T23:17:40;2.20;78.40
4584;DHT22;2304;47.606;12.186;2023-01-10T23:22:42;2.20;78.20
4584;DHT22;2304;47.606;12.186;2023-01-10T23:27:45;2.20;77.80
4584;DHT22;2304;47.606;12.186;2023-01-10T23:32:47;2.20;77.10
4584;DHT22;2304;47.606;12.186;2023-01-10T23:37:50;2.20;76.80
4584;DHT22;2304;47.606;12.186;2023-01-10T23:42:54;2.30;76.60
4584;DHT22;2304;47.606;12.186;2023-01-10T23:47:56;2.30;76.10
4584;DHT22;2304;47.606;12.186;2023-01-10T23:52:58;2.30;75.80
4584;DHT22;2304;47.606;12.186;2023-01-10T23:58:02;2.30;75.50
